createdAt,value
2022-11-17T00:01:43.464Z,71
2022-11-17T00:04:31.730Z,71.2
2022-11-17T00:07:19.493Z,71.1
2022-11-17T00:10:07.375Z,70.8
2022-11-17T00:12:55.155Z,71.1
2022-11-17T00:16:14.882Z,71
2022-11-17T00:19:04.464Z,71.1
2022-11-17T00:22:24.772Z,70.9
2022-11-17T00:25:16.331Z,71
2022-11-17T00:28:04.134Z,71
2022-11-17T00:30:51.928Z,70.8
2022-11-17T00:34:11.298Z,71
2022-11-17T00:37:01.678Z,71.4
2022-11-17T00:39:50.433Z,71.1
2022-11-17T00:42:38.458Z,71
2022-11-17T00:45:26.246Z,71.3
2022-11-17T00:48:13.896Z,71.3
2022-11-17T00:51:01.786Z,71.1
2022-11-17T00:53:50.362Z,71.2
2022-11-17T00:56:38.242Z,71.1
2022-11-17T00:59:26.606Z,71.2
2022-11-17T01:02:14.414Z,71.3
2022-11-17T01:05:02.204Z,71.4
2022-11-17T01:07:50.768Z,71.2
2022-11-17T01:10:38.982Z,71.1
2022-11-17T01:13:26.657Z,71.5
2022-11-17T01:16:14.431Z,71.4
2022-11-17T01:19:04.175Z,71.1
2022-11-17T01:21:52.259Z,71.2
2022-11-17T01:24:40.164Z,71.4
2022-11-17T01:27:27.953Z,71.5
2022-11-17T01:30:16.003Z,71.6
2022-11-17T01:33:03.918Z,71.5
2022-11-17T01:35:51.653Z,71.5
2022-11-17T01:38:39.625Z,71.4
2022-11-17T01:41:27.833Z,71.1
2022-11-17T01:44:15.624Z,71.5
2022-11-17T01:47:39.666Z,71.5
2022-11-17T01:50:31.400Z,71.5
2022-11-17T01:53:23.404Z,71.2
2022-11-17T01:56:18.202Z,71.5
2022-11-17T01:59:09.765Z,71.4
2022-11-17T02:02:04.377Z,71.5
2022-11-17T02:04:52.916Z,71.4
2022-11-17T02:07:50.274Z,71.4
2022-11-17T02:10:41.211Z,71.2
2022-11-17T02:13:29.282Z,71.1
2022-11-17T02:16:18.859Z,71.4
2022-11-17T02:19:06.210Z,71.1
2022-11-17T02:21:56.667Z,71.3
2022-11-17T02:25:10.699Z,71.3
2022-11-17T02:28:11.742Z,70.9
2022-11-17T02:31:03.076Z,71.2
2022-11-17T02:34:04.925Z,71.2
2022-11-17T02:37:02.510Z,71.1
2022-11-17T02:39:56.420Z,71.2
2022-11-17T02:42:49.169Z,71
2022-11-17T02:46:13.746Z,71.1
2022-11-17T02:49:04.289Z,71.2
2022-11-17T02:51:58.257Z,71
2022-11-17T02:54:47.457Z,71.2
2022-11-17T02:57:34.927Z,71.1
2022-11-17T03:00:24.543Z,71.1
2022-11-17T03:03:13.452Z,71.1
2022-11-17T03:06:12.321Z,71.3
2022-11-17T03:09:11.779Z,71
2022-11-17T03:12:06.804Z,71
2022-11-17T03:15:01.189Z,71.3
2022-11-17T03:17:58.597Z,71.2
2022-11-17T03:20:54.173Z,71.2
2022-11-17T03:23:50.699Z,71.1
2022-11-17T03:26:48.836Z,71.1
2022-11-17T03:29:40.976Z,71.2
2022-11-17T03:32:35.530Z,71.2
2022-11-17T03:35:25.659Z,71.3
2022-11-17T03:38:16.820Z,71.3
2022-11-17T03:41:08.040Z,71.2
2022-11-17T03:43:59.232Z,70.9
2022-11-17T03:46:49.378Z,71.3
2022-11-17T03:49:39.443Z,71.3
2022-11-17T03:52:32.664Z,71.1
2022-11-17T03:55:22.567Z,71.1
2022-11-17T03:58:17.015Z,71
2022-11-17T04:01:07.381Z,71.2
2022-11-17T04:03:55.820Z,71.1
2022-11-17T04:06:43.336Z,71
2022-11-17T04:09:30.987Z,71
2022-11-17T04:12:18.349Z,71.1
2022-11-17T04:15:37.513Z,71.2
2022-11-17T04:18:58.957Z,70.7
2022-11-17T04:21:46.877Z,70.8
2022-11-17T04:24:35.131Z,71
2022-11-17T04:27:23.120Z,70.8
2022-11-17T04:30:41.968Z,71.1
2022-11-17T04:33:29.287Z,71
2022-11-17T04:36:17.034Z,71.1
2022-11-17T04:39:06.239Z,70.9
2022-11-17T04:41:54.677Z,70.8
2022-11-17T04:44:46.783Z,70.9
2022-11-17T04:47:35.168Z,70.9
2022-11-17T04:50:22.436Z,70.9
2022-11-17T04:53:09.764Z,70.8
2022-11-17T04:55:57.097Z,70.6
2022-11-17T04:58:45.414Z,70.7
2022-11-17T05:01:34.317Z,70.6
2022-11-17T05:04:22.010Z,70.6
2022-11-17T05:07:40.880Z,70.6
2022-11-17T05:10:28.218Z,70.6
2022-11-17T05:16:06.281Z,70.5
2022-11-17T05:19:25.363Z,70.4
2022-11-17T05:22:14.184Z,71
2022-11-17T05:25:35.420Z,70.5
2022-11-17T05:28:22.789Z,70.5
2022-11-17T05:31:10.113Z,70.9
2022-11-17T05:33:57.765Z,70.8
2022-11-17T05:36:46.197Z,70.8
2022-11-17T05:39:35.076Z,70.7
2022-11-17T05:42:22.495Z,70.8
2022-11-17T05:45:09.806Z,70.6
2022-11-17T05:47:57.216Z,71
2022-11-17T05:50:44.504Z,70.7
2022-11-17T05:53:32.738Z,70.9
2022-11-17T05:56:20.197Z,71.1
2022-11-17T05:59:21.022Z,71
2022-11-17T06:02:18.318Z,70.8
2022-11-17T06:05:17.012Z,71.1
2022-11-17T06:08:08.653Z,70.9
2022-11-17T06:10:56.045Z,71
2022-11-17T06:13:43.473Z,70.9
2022-11-17T06:16:30.909Z,71.2
2022-11-17T06:19:22.440Z,71.2
2022-11-17T06:22:15.262Z,71.1
2022-11-17T06:25:02.677Z,71.2
2022-11-17T06:27:53.496Z,71.1
2022-11-17T06:30:42.769Z,71.1
2022-11-17T06:33:30.271Z,71.1
2022-11-17T06:36:19.226Z,71
2022-11-17T06:39:06.637Z,71.3
2022-11-17T06:41:54.221Z,70.9
2022-11-17T06:44:41.660Z,70.9
2022-11-17T06:47:29.075Z,71.1
2022-11-17T06:50:16.340Z,71.1
2022-11-17T06:53:03.832Z,71.3
2022-11-17T06:55:54.222Z,71.2
2022-11-17T06:58:46.776Z,71.1
2022-11-17T07:01:35.118Z,70.7
2022-11-17T07:04:22.528Z,70.9
2022-11-17T07:07:09.870Z,70.7
2022-11-17T07:09:57.910Z,71
2022-11-17T07:12:45.227Z,70.7
2022-11-17T07:15:33.571Z,70.4
2022-11-17T07:18:20.979Z,70.4
2022-11-17T07:21:08.338Z,70.5
2022-11-17T07:23:58.298Z,70.7
2022-11-17T07:26:45.938Z,70.4
2022-11-17T07:29:34.247Z,69.8
2022-11-17T07:32:21.641Z,70.4
2022-11-17T07:35:09.391Z,70.1
2022-11-17T07:37:57.445Z,70
2022-11-17T07:40:46.125Z,70.4
2022-11-17T07:43:34.748Z,70.3
2022-11-17T07:46:22.473Z,70.3
2022-11-17T07:49:10.395Z,70.3
2022-11-17T07:51:57.867Z,69.3
2022-11-17T07:54:46.327Z,69.9
2022-11-17T07:57:34.685Z,69.6
2022-11-17T08:00:22.061Z,69.9
2022-11-17T08:03:10.227Z,69.1
2022-11-17T08:05:57.588Z,69.8
2022-11-17T08:08:47.225Z,69.6
2022-11-17T08:11:35.888Z,69.4
2022-11-17T08:14:23.210Z,69.6
2022-11-17T08:17:10.557Z,69.2
2022-11-17T08:19:57.900Z,68.9
2022-11-17T08:22:45.238Z,69.5
2022-11-17T08:25:34.863Z,69.5
2022-11-17T08:28:22.223Z,69.3
2022-11-17T08:31:09.545Z,69.8
2022-11-17T08:33:56.913Z,69.6
2022-11-17T08:36:44.251Z,69.4
2022-11-17T08:39:31.777Z,69.5
2022-11-17T08:42:19.166Z,69.6
2022-11-17T08:45:06.678Z,69.8
2022-11-17T08:47:55.125Z,69.4
2022-11-17T08:50:42.621Z,69.4
2022-11-17T08:53:30.234Z,69.5
2022-11-17T08:56:17.673Z,69.5
2022-11-17T08:59:04.964Z,69.7
2022-11-17T09:01:53.951Z,69.4
2022-11-17T09:04:41.354Z,69.5
2022-11-17T09:07:34.543Z,69.6
2022-11-17T09:10:22.337Z,69.7
2022-11-17T09:13:09.784Z,69.8
2022-11-17T09:15:57.105Z,69.6
2022-11-17T09:18:47.174Z,69.6
2022-11-17T09:21:40.504Z,69.6
2022-11-17T09:24:27.893Z,69.7
2022-11-17T09:27:15.141Z,69.2
2022-11-17T09:30:02.652Z,69.4
2022-11-17T09:32:52.559Z,69
2022-11-17T09:35:39.910Z,69.2
2022-11-17T09:38:27.116Z,68.5
2022-11-17T09:41:14.505Z,69.1
2022-11-17T09:44:10.822Z,67.1
2022-11-17T09:47:10.668Z,67.7
2022-11-17T09:50:14.623Z,67.8
2022-11-17T09:53:07.865Z,66.5
2022-11-17T09:56:04.807Z,66.6
2022-11-17T09:58:56.082Z,66.9
2022-11-17T10:01:49.441Z,67.1
2022-11-17T10:04:37.783Z,67.6
2022-11-17T10:07:25.181Z,67.3
2022-11-17T10:10:14.631Z,66.4
2022-11-17T10:13:06.343Z,67.3
2022-11-17T10:16:01.872Z,66.7
2022-11-17T10:18:51.919Z,66.6
2022-11-17T10:21:39.184Z,66.6
2022-11-17T10:24:26.488Z,66
2022-11-17T10:27:23.996Z,65.2
2022-11-17T10:30:13.163Z,65.6
2022-11-17T10:33:08.139Z,64.9
2022-11-17T10:35:58.628Z,65.1
2022-11-17T10:38:47.099Z,64.6
2022-11-17T10:41:37.255Z,64.4
2022-11-17T10:44:27.667Z,64.2
2022-11-17T10:47:18.633Z,65.4
2022-11-17T10:50:16.732Z,64.8
2022-11-17T10:53:12.631Z,63.6
2022-11-17T10:56:08.517Z,64.9
2022-11-17T10:58:59.313Z,64.6
2022-11-17T11:01:57.910Z,65
2022-11-17T11:05:12.360Z,65.2
2022-11-17T11:08:02.230Z,64.3
2022-11-17T11:11:56.791Z,64.6
2022-11-17T11:14:47.049Z,64.7
2022-11-17T11:17:39.376Z,64.2
2022-11-17T11:20:26.724Z,63.8
2022-11-17T11:23:27.630Z,64.3
2022-11-17T11:26:24.647Z,64.8
2022-11-17T11:29:27.530Z,64.4
2022-11-17T11:32:30.144Z,64.2
2022-11-17T11:35:30.532Z,63.5
2022-11-17T11:38:30.253Z,63.7
2022-11-17T11:41:34.747Z,62.9
2022-11-17T11:44:38.440Z,63.1
2022-11-17T11:47:41.790Z,63.5
2022-11-17T11:51:02.235Z,62.4
2022-11-17T11:53:56.223Z,64.1
2022-11-17T11:56:50.800Z,62.6
2022-11-17T11:59:38.723Z,63.2
2022-11-17T12:02:35.377Z,63.3
2022-11-17T12:05:30.775Z,63.3
2022-11-17T12:08:24.223Z,63
2022-11-17T12:11:20.760Z,63.1
2022-11-17T12:14:40.042Z,63.2
2022-11-17T12:17:52.566Z,62.6
2022-11-17T12:20:44.735Z,63
2022-11-17T12:23:40.101Z,63
2022-11-17T12:26:52.658Z,62.7
2022-11-17T12:30:16.772Z,62.5
2022-11-17T12:33:38.006Z,62.3
2022-11-17T12:37:15.125Z,63.2
2022-11-17T12:40:07.041Z,62.6
2022-11-17T12:43:28.039Z,63.2
2022-11-17T12:46:16.739Z,62.6
2022-11-17T12:49:12.075Z,62.7
2022-11-17T12:52:09.661Z,62.7
2022-11-17T12:55:06.067Z,63.4
2022-11-17T12:58:10.320Z,62.1
2022-11-17T13:01:07.370Z,62.9
2022-11-17T13:04:01.493Z,62.3
2022-11-17T13:06:56.969Z,62.3
2022-11-17T13:09:46.716Z,62.3
2022-11-17T13:12:41.379Z,62.7
2022-11-17T13:15:28.939Z,62.9
2022-11-17T13:18:17.192Z,62.7
2022-11-17T13:21:15.411Z,61.8
2022-11-17T13:24:14.680Z,62.5
2022-11-17T13:27:15.803Z,61.7
2022-11-17T13:30:07.927Z,61.9
2022-11-17T13:33:05.819Z,61.9
2022-11-17T13:36:03.233Z,61.9
2022-11-17T13:39:00.410Z,62.5
2022-11-17T13:41:49.162Z,62.2
2022-11-17T13:44:37.030Z,62.6
2022-11-17T13:47:24.620Z,61.5
2022-11-17T13:50:26.059Z,61.6
2022-11-17T13:53:23.971Z,62
2022-11-17T13:56:12.059Z,62.5
2022-11-17T13:59:08.720Z,61.6
2022-11-17T14:02:09.507Z,62.1
2022-11-17T14:05:09.316Z,61.5
2022-11-17T14:08:13.538Z,61.8
2022-11-17T14:11:11.773Z,62.4
2022-11-17T14:14:06.035Z,62.8
2022-11-17T14:16:58.260Z,63.1
2022-11-17T14:19:57.286Z,63.1
2022-11-17T14:23:04.106Z,62.9
2022-11-17T14:26:03.021Z,63.3
2022-11-17T14:28:51.415Z,63.3
2022-11-17T14:31:39.757Z,62.5
2022-11-17T14:34:27.802Z,62.9
2022-11-17T14:37:15.225Z,63.1
2022-11-17T14:40:03.353Z,62.3
2022-11-17T14:42:57.127Z,63.1
2022-11-17T14:45:44.362Z,63.4
2022-11-17T14:48:33.401Z,62.7
2022-11-17T14:51:21.761Z,63.7
2022-11-17T14:54:09.506Z,63.5
2022-11-17T14:56:56.747Z,64
2022-11-17T14:59:44.601Z,64.1
2022-11-17T15:02:33.887Z,64.2
2022-11-17T15:05:22.500Z,64.1
2022-11-17T15:08:09.773Z,64.1
2022-11-17T15:10:57.221Z,63.4
2022-11-17T15:13:44.540Z,61.1
2022-11-17T15:16:32.041Z,59.8
2022-11-17T15:19:19.443Z,58.2
2022-11-17T15:22:06.869Z,58.8
2022-11-17T15:24:54.253Z,60.3
2022-11-17T15:27:41.572Z,61.6
2022-11-17T15:30:29.133Z,63.1
2022-11-17T15:33:16.419Z,61.9
2022-11-17T15:36:03.865Z,59.9
2022-11-17T15:38:52.139Z,58.1
2022-11-17T15:41:39.570Z,59.1
2022-11-17T15:44:26.931Z,61
2022-11-17T15:47:14.628Z,62.2
2022-11-17T15:50:02.075Z,62.9
2022-11-17T15:55:50.335Z,59.1
2022-11-17T15:58:37.594Z,58.5
2022-11-17T16:01:26.217Z,60.2
2022-11-17T16:04:15.299Z,61.7
2022-11-17T16:07:02.804Z,63
2022-11-17T16:09:50.455Z,63.6
2022-11-17T16:12:37.900Z,61.4
2022-11-17T16:15:25.101Z,59.9
2022-11-17T16:18:13.316Z,58.4
2022-11-17T16:21:04.342Z,59.4
2022-11-17T16:23:54.593Z,61.1
2022-11-17T16:26:45.226Z,62.7
2022-11-17T16:29:33.419Z,63.3
2022-11-17T16:32:20.782Z,61.1
2022-11-17T16:35:08.132Z,58.4
2022-11-17T16:37:55.426Z,59
2022-11-17T16:40:42.801Z,60
2022-11-17T16:43:30.172Z,62
2022-11-17T16:46:17.503Z,63.5
2022-11-17T16:49:07.021Z,62.3
2022-11-17T16:51:57.167Z,60.3
2022-11-17T16:54:44.496Z,59.6
2022-11-17T16:57:32.402Z,58.8
2022-11-17T17:00:19.786Z,59.5
2022-11-17T17:03:07.449Z,60.6
2022-11-17T17:05:54.739Z,62.8
2022-11-17T17:08:42.071Z,62.9
2022-11-17T17:11:30.547Z,61.4
2022-11-17T17:14:19.490Z,60.2
2022-11-17T17:17:06.844Z,59
2022-11-17T17:19:54.089Z,58.6
2022-11-17T17:22:41.567Z,60.5
2022-11-17T17:25:29.719Z,61.2
2022-11-17T17:28:17.154Z,62.5
2022-11-17T17:31:04.605Z,63.6
2022-11-17T17:33:52.826Z,62.2
2022-11-17T17:36:40.450Z,60.1
2022-11-17T17:39:27.780Z,58.6
2022-11-17T17:42:15.077Z,59.2
2022-11-17T17:45:02.304Z,60.9
2022-11-17T17:47:50.425Z,61.9
2022-11-17T17:50:37.817Z,63.3
2022-11-17T17:53:25.184Z,63
2022-11-17T17:56:12.560Z,61.6
2022-11-17T17:59:00.371Z,60.3
2022-11-17T18:01:48.012Z,59.4
2022-11-17T18:04:37.884Z,58.8
2022-11-17T18:07:25.349Z,60.1
2022-11-17T18:10:12.764Z,61.4
2022-11-17T18:13:00.642Z,63.1
2022-11-17T18:15:49.146Z,63.8
2022-11-17T18:18:37.120Z,62.9
2022-11-17T18:21:25.521Z,61.3
2022-11-17T18:24:13.673Z,59.9
2022-11-17T18:27:01.089Z,58.4
2022-11-17T18:29:48.831Z,58.7
2022-11-17T18:32:36.921Z,60
2022-11-17T18:35:24.236Z,61.5
2022-11-17T18:38:11.744Z,63.7
2022-11-17T18:41:00.292Z,63.9
2022-11-17T18:43:50.175Z,63.7
2022-11-17T18:46:37.621Z,63.2
2022-11-17T18:49:25.273Z,63
2022-11-17T18:52:12.686Z,62.7
2022-11-17T18:54:59.922Z,62.3
2022-11-17T18:57:47.595Z,62.2
2022-11-17T19:00:36.147Z,62.2
2022-11-17T19:03:23.502Z,62
2022-11-17T19:06:10.893Z,61.9
2022-11-17T19:08:59.511Z,61.9
2022-11-17T19:11:47.183Z,61.6
2022-11-17T19:14:35.522Z,61.6
2022-11-17T19:17:22.907Z,61.8
2022-11-17T19:20:10.328Z,61.5
2022-11-17T19:22:58.012Z,61.2
2022-11-17T19:25:45.363Z,61.5
2022-11-17T19:28:33.266Z,61.3
2022-11-17T19:31:21.074Z,61.4
2022-11-17T19:34:09.096Z,61.5
2022-11-17T19:36:56.817Z,61.4
2022-11-17T19:39:44.132Z,62
2022-11-17T19:42:31.538Z,62
2022-11-17T19:45:18.765Z,62.4
2022-11-17T19:48:06.398Z,62.1
2022-11-17T19:50:56.012Z,62.4
2022-11-17T19:53:44.599Z,62.1
2022-11-17T19:56:32.820Z,62.9
2022-11-17T19:59:20.813Z,62.5
2022-11-17T20:02:08.533Z,62.3
2022-11-17T20:04:56.280Z,62.2
2022-11-17T20:07:43.943Z,62
2022-11-17T20:10:31.246Z,62.3
2022-11-17T20:13:18.890Z,62.3
2022-11-17T20:16:08.919Z,62.3
2022-11-17T20:19:00.882Z,62.2
2022-11-17T20:21:48.621Z,62.1
2022-11-17T20:24:36.205Z,62.4
2022-11-17T20:27:23.497Z,62
2022-11-17T20:30:14.989Z,62.2
2022-11-17T20:33:02.768Z,62.1
2022-11-17T20:35:50.514Z,62.2
2022-11-17T20:38:37.838Z,61.9
2022-11-17T20:41:25.400Z,62.2
2022-11-17T20:44:13.112Z,62.5
2022-11-17T20:47:08.506Z,62.4
2022-11-17T20:49:56.136Z,62
2022-11-17T20:52:43.678Z,61.9
2022-11-17T20:55:31.030Z,62.2
2022-11-17T20:58:18.434Z,62.2
2022-11-17T21:01:06.489Z,62.3
2022-11-17T21:03:55.847Z,62.4
2022-11-17T21:06:43.406Z,61.9
2022-11-17T21:09:30.686Z,62.1
2022-11-17T21:12:18.000Z,62.5
2022-11-17T21:15:05.346Z,62.5
2022-11-17T21:17:53.567Z,62.6
2022-11-17T21:21:13.060Z,62
2022-11-17T21:24:01.194Z,61.6
2022-11-17T21:26:49.389Z,62
2022-11-17T21:29:39.034Z,61.8
2022-11-17T21:32:26.438Z,61.9
2022-11-17T21:35:14.157Z,61.9
2022-11-17T21:38:01.590Z,62
2022-11-17T21:40:49.379Z,62.5
2022-11-17T21:43:37.174Z,62.5
2022-11-17T21:46:26.748Z,62.4
2022-11-17T21:49:17.420Z,62.7
2022-11-17T21:52:05.387Z,62.6
2022-11-17T21:54:53.156Z,62.9
2022-11-17T21:57:40.500Z,63
2022-11-17T22:00:27.731Z,62.9
2022-11-17T22:03:15.079Z,62.8
2022-11-17T22:06:02.626Z,62.6
2022-11-17T22:08:52.085Z,62.9
2022-11-17T22:11:40.631Z,62.9
2022-11-17T22:14:28.050Z,62.9
2022-11-17T22:17:16.079Z,63.3
2022-11-17T22:20:03.631Z,63
2022-11-17T22:22:53.127Z,63.3
2022-11-17T22:25:45.083Z,63.3
2022-11-17T22:28:38.942Z,63.7
2022-11-17T22:31:26.553Z,63.4
2022-11-17T22:34:13.967Z,63.3
2022-11-17T22:37:02.579Z,63.6
2022-11-17T22:39:50.007Z,63.6
2022-11-17T22:42:37.324Z,63.2
2022-11-17T22:45:24.684Z,63.1
2022-11-17T22:48:11.955Z,63.2
2022-11-17T22:50:59.261Z,63.4
2022-11-17T22:53:47.446Z,63.2
2022-11-17T22:56:36.125Z,63.4
2022-11-17T22:59:23.969Z,63.5
2022-11-17T23:02:12.732Z,63.6
2022-11-17T23:05:00.025Z,63.4
2022-11-17T23:07:47.880Z,63.2
2022-11-17T23:10:36.200Z,63.1
2022-11-17T23:13:23.513Z,63.3
2022-11-17T23:16:10.861Z,63.1
2022-11-17T23:18:58.209Z,63.2
2022-11-17T23:21:45.870Z,63.1
2022-11-17T23:24:34.159Z,63.3
2022-11-17T23:27:21.463Z,64.1
2022-11-17T23:30:08.861Z,63.4
2022-11-17T23:32:57.547Z,63.3
2022-11-17T23:35:44.859Z,63.3
2022-11-17T23:38:32.154Z,63.6
2022-11-17T23:41:19.595Z,63.6
2022-11-17T23:44:07.170Z,63.5
2022-11-17T23:46:54.896Z,64
2022-11-17T23:49:42.205Z,63.2
2022-11-17T23:52:29.589Z,63.3
2022-11-17T23:55:17.119Z,63.7
2022-11-17T23:58:04.400Z,63
